Livermore, CA

12:40 PM PDT on September 01, 2014 (GMT -0700)
KCALIVER27 | Change Station
CLOSE
Current Station
Personal Weather Station
Location: Livermore, CA
Elevation: 571 ft
Nearby Weather Stations

Elev 571 ft 37.67 °N, 121.74 °W | Updated 1 second ago

Clear
Clear
89.8 °F
Feels Like 87 °F
N
0.0
Wind Variable Wind from North
Gusts 0.0 mph

Today
High -- | Low -- °F
--% Chance of Precip.
Yesterday
High -- | Low -- °F
Precip. -- in
6:37 AM 7:36 PM
Waxing Crescent, 43% visible
Pressure 29.81 in
Visibility 10.0 miles
Clouds Clear
Heat Index 87 °F
Dew Point 48 °F
Humidity 24%
Rainfall 0.00 in
Snow Depth Not available.
UV 9 out of 12
Pollen 8.40 out of 12
Ozone Good
PM2.5 Good
Flu Activity Not available.
METAR KLVK 011853Z AUTO VRB05KT 10SM CLR 31/08 A2982 RMK AO2 SLP094 T03110078 TSNO

More Conditions Fewer Conditions

Pressure 29.81 in
Visibility 10.0 miles
Clouds Clear
Heat Index 87 °F
Dew Point 48 °F
Humidity 24%
Rainfall 0.00 in
Snow Depth Not available.
UV 9 out of 12
Pollen 8.40 out of 12
Ozone Good
PM2.5 Good
Flu Activity Not available.
METAR KLVK 011853Z AUTO VRB05KT 10SM CLR 31/08 A2982 RMK AO2 SLP094 T03110078 TSNO

More Conditions Fewer Conditions

10-Day Weather Forecast

Almanac

Astronomy

Sep. 01, 2014 Rise Set
Actual Time 6:37 AM PDT 7:36 PM PDT
Civil Twilight 6:10 AM PDT 8:02 PM PDT
Nautical Twilight 5:38 AM PDT 8:34 PM PDT
Astronomical Twilight 5:05 AM PDT 9:07 PM PDT
Moon 1:20 PM PDT 11:49 PM PDT
Length of Visible Light 13h 52m
Length of Day
12h 58m
Tomorrow will be 2m 19s shorter.
Waxing Crescent, 43% of the Moon is Illuminated
Today
Waxing Crescent
Sep 2
First Quarter
Sep 8
Full
Sep 15
Last Quarter
Sep 24
New

Today's Extremes

State Highs State Lows

Community

WunderPhotos

Upload Photos

1,749,387 photos uploaded!

WunderBlogs® & News

Nearby

Air Quality

  Air Quality AQ Index Pollutant
Yesterday Good
OZONE
Yesterday Good
PM2.5
Current Good
PM2.5
Current Good
OZONE
Monday Good
OZONE
Tuesday Good
OZONE
Wednesday Good
OZONE
Thursday Good
OZONE
Friday Good
OZONE

Snow Depth

Station Depth Elevation
Blue Lakes 0 in 8000 ft
Fallen Leaf 0 in 6300 ft
Rubicon #2 0 in 7500 ft
Leavitt Meadows 0 in 7200 ft
Summit Meadow 0 in 9122 ft

Earthquake Activity

City Distance Mag. Time & Date
Gilroy, California 50 miles 3.5 9:10 AM PDT
2014-09-01
Green Valley, California 45 miles 2.5 6:37 AM PDT
2014-08-31
Napa, California 50 miles 3.2 1:56 AM PDT
2014-08-31
Gonzales, California 77 miles 2.7 9:48 PM PDT
2014-08-30
Minimum magnitude displayed is 2.5.

Coastal Water Temperatures

Place Temperature
No Stations Reporting

Nearby Weather Stations